Time;durP1;ratioP1;P1;durP2;ratioP2;P2;SDS_P1;SDS_P2;PMS_P1;PMS_P2;Temp;Humidity;BMP_temperature;BMP_pressure;BME280_temperature;BME280_humidity;BME280_pressure;Samples;Min_cycle;Max_cycle;Signal;HPM_P1;HPM_P2
2021/11/26 00:00:26;;;;;;;3.60;2.45;;;;;;;;;;4175258;28;20045;-37
2021/11/26 00:02:28;;;;;;;4.07;2.42;;;;;;;;;;4175287;28;20095;-37
2021/11/26 00:04:29;;;;;;;4.75;2.50;;;;;;;;;;4173758;28;20571;-37
2021/11/26 00:06:31;;;;;;;2.67;2.17;;;;;;;;;;4170222;28;20103;-37
2021/11/26 00:08:32;;;;;;;3.60;2.42;;;;;;;;;;4142947;28;20072;-37
2021/11/26 00:10:34;;;;;;;3.42;2.47;;;;;;;;;;4144782;28;20107;-37
2021/11/26 00:12:35;;;;;;;3.60;2.53;;;;;;;;;;4167102;28;20053;-37
2021/11/26 00:14:44;;;;;;;2.92;2.42;;;;;;;;;;4174891;28;20053;-38
2021/11/26 00:16:47;;;;;;;2.80;2.10;;;;;;;;;;4155233;28;20053;-37
2021/11/26 00:18:54;;;;;;;3.95;2.70;;;;;;;;;;4171237;28;20056;-37
2021/11/26 00:20:55;;;;;;;3.25;2.20;;;;;;;;;;4174166;28;20099;-37
2021/11/26 00:22:57;;;;;;;3.72;2.20;;;;;;;;;;4172675;28;20068;-37
2021/11/26 00:24:58;;;;;;;2.90;2.03;;;;;;;;;;4154152;28;20053;-38
2021/11/26 00:27:00;;;;;;;3.45;2.20;;;;;;;;;;4173630;28;20119;-36
2021/11/26 00:29:01;;;;;;;3.00;2.30;;;;;;;;;;4169621;28;20049;-37
2021/11/26 00:31:02;;;;;;;3.25;2.40;;;;;;;;;;4175075;28;20049;-36
2021/11/26 00:33:03;;;;;;;3.45;2.22;;;;;;;;;;4172164;28;20056;-37
2021/11/26 00:35:06;;;;;;;3.00;2.45;;;;;;;;;;4169219;28;20574;-36
2021/11/26 00:37:07;;;;;;;2.70;2.05;;;;;;;;;;4173729;28;20167;-40
2021/11/26 00:39:08;;;;;;;3.42;2.35;;;;;;;;;;4172783;28;20048;-36
2021/11/26 00:41:09;;;;;;;3.78;2.03;;;;;;;;;;4173035;28;20049;-37
2021/11/26 00:43:11;;;;;;;2.63;2.15;;;;;;;;;;4175323;28;20056;-37
2021/11/26 00:45:14;;;;;;;3.45;2.10;;;;;;;;;;4173931;28;20524;-36
2021/11/26 00:47:15;;;;;;;3.30;2.50;;;;;;;;;;4171969;28;20060;-38
2021/11/26 00:49:16;;;;;;;4.82;2.30;;;;;;;;;;4174979;28;20393;-37
2021/11/26 00:51:18;;;;;;;3.55;2.50;;;;;;;;;;4172381;28;20065;-38
2021/11/26 00:53:19;;;;;;;2.92;2.25;;;;;;;;;;4167909;28;20057;-37
2021/11/26 00:55:20;;;;;;;2.65;2.25;;;;;;;;;;4174922;28;20052;-37
2021/11/26 00:57:21;;;;;;;3.13;2.25;;;;;;;;;;4169567;28;20068;-38
2021/11/26 00:59:23;;;;;;;2.97;2.13;;;;;;;;;;4175901;28;20061;-37
2021/11/26 01:01:24;;;;;;;3.80;2.40;;;;;;;;;;4173614;28;20114;-37
2021/11/26 01:03:25;;;;;;;2.25;1.63;;;;;;;;;;4168432;28;20527;-37
2021/11/26 01:05:27;;;;;;;3.22;2.10;;;;;;;;;;4172671;28;20478;-37
2021/11/26 01:07:28;;;;;;;3.33;2.33;;;;;;;;;;4168804;28;20064;-38
2021/11/26 01:09:30;;;;;;;3.35;2.20;;;;;;;;;;4173376;28;20071;-37
2021/11/26 01:11:31;;;;;;;3.65;2.15;;;;;;;;;;4155169;28;20053;-37
2021/11/26 01:13:32;;;;;;;3.35;2.00;;;;;;;;;;4172391;28;20485;-37
2021/11/26 01:15:34;;;;;;;2.70;1.85;;;;;;;;;;4150667;28;20053;-37
2021/11/26 01:17:37;;;;;;;2.80;1.88;;;;;;;;;;4172354;28;20061;-37
2021/11/26 01:19:38;;;;;;;3.03;2.08;;;;;;;;;;4170803;28;20554;-38
2021/11/26 01:21:39;;;;;;;2.78;1.83;;;;;;;;;;4175018;28;20057;-36
2021/11/26 01:23:42;;;;;;;2.50;2.08;;;;;;;;;;4173134;28;20434;-36
2021/11/26 01:25:43;;;;;;;3.35;2.05;;;;;;;;;;4172162;28;20057;-37
2021/11/26 01:27:46;;;;;;;2.72;2.17;;;;;;;;;;4170530;28;20045;-37
2021/11/26 01:29:47;;;;;;;2.90;1.90;;;;;;;;;;4172656;28;20061;-37
2021/11/26 01:31:49;;;;;;;2.95;1.98;;;;;;;;;;4167669;28;20098;-37
2021/11/26 01:33:52;;;;;;;2.65;1.85;;;;;;;;;;4171140;28;20498;-37
2021/11/26 01:35:54;;;;;;;3.22;1.92;;;;;;;;;;4169635;28;20107;-37
2021/11/26 01:37:56;;;;;;;2.47;1.50;;;;;;;;;;4172245;28;20111;-37
2021/11/26 01:39:57;;;;;;;2.55;1.92;;;;;;;;;;4172620;28;20063;-38
2021/11/26 01:41:59;;;;;;;2.83;2.00;;;;;;;;;;4171988;28;20444;-38
2021/11/26 01:44:00;;;;;;;2.80;2.00;;;;;;;;;;4173404;28;20505;-37
2021/11/26 01:46:09;;;;;;;3.13;2.15;;;;;;;;;;4174651;28;20079;-38
2021/11/26 01:48:11;;;;;;;2.88;1.85;;;;;;;;;;4173108;28;20173;-37
2021/11/26 01:50:12;;;;;;;2.63;1.77;;;;;;;;;;4171980;28;20110;-36
2021/11/26 01:52:14;;;;;;;3.50;1.85;;;;;;;;;;4173838;28;20489;-38
2021/11/26 01:54:15;;;;;;;2.78;1.77;;;;;;;;;;4171829;28;20046;-43
2021/11/26 01:56:16;;;;;;;1.73;1.55;;;;;;;;;;4173010;28;20444;-37
2021/11/26 01:58:19;;;;;;;2.67;1.88;;;;;;;;;;4154751;28;20057;-38
2021/11/26 02:00:27;;;;;;;2.35;1.80;;;;;;;;;;4170591;28;20103;-37
2021/11/26 02:02:28;;;;;;;2.97;2.20;;;;;;;;;;4174875;28;20102;-37
2021/11/26 02:04:29;;;;;;;2.58;1.70;;;;;;;;;;4172682;28;20102;-37
2021/11/26 02:06:31;;;;;;;2.45;1.60;;;;;;;;;;4171232;28;20381;-38
2021/11/26 02:08:32;;;;;;;2.28;1.70;;;;;;;;;;4170174;28;20095;-37
2021/11/26 02:10:33;;;;;;;3.47;2.10;;;;;;;;;;4173761;28;20111;-41
2021/11/26 02:12:34;;;;;;;1.88;1.58;;;;;;;;;;4176517;28;20436;-37
2021/11/26 02:14:36;;;;;;;2.03;1.50;;;;;;;;;;4174389;28;20103;-38
2021/11/26 02:16:45;;;;;;;2.42;1.50;;;;;;;;;;4176482;28;20056;-39
2021/11/26 02:18:50;;;;;;;2.00;1.60;;;;;;;;;;4175690;28;20103;-37
2021/11/26 02:20:52;;;;;;;2.53;1.67;;;;;;;;;;4172004;28;20045;-38
2021/11/26 02:22:55;;;;;;;3.05;1.90;;;;;;;;;;4174981;28;20088;-37
2021/11/26 02:24:56;;;;;;;3.58;1.63;;;;;;;;;;4170275;28;20060;-37
2021/11/26 02:26:57;;;;;;;2.63;1.77;;;;;;;;;;4176768;28;20060;-36
2021/11/26 02:28:59;;;;;;;1.80;1.52;;;;;;;;;;4174955;28;20373;-37
2021/11/26 02:31:01;;;;;;;3.00;1.85;;;;;;;;;;4174472;28;20131;-37
2021/11/26 02:33:18;;;;;;;2.50;1.90;;;;;;;;;;4177064;28;20057;-37
2021/11/26 02:35:20;;;;;;;2.45;1.77;;;;;;;;;;4175962;28;20074;-36
2021/11/26 02:37:21;;;;;;;2.25;1.50;;;;;;;;;;4169324;28;20104;-37
2021/11/26 02:39:22;;;;;;;1.88;1.40;;;;;;;;;;4172093;28;20061;-37
2021/11/26 02:41:23;;;;;;;1.63;1.42;;;;;;;;;;4174216;28;20083;-37
2021/11/26 02:43:25;;;;;;;1.92;1.70;;;;;;;;;;4175238;28;20061;-38
2021/11/26 02:45:27;;;;;;;2.15;1.45;;;;;;;;;;4174730;28;20063;-39
2021/11/26 02:47:28;;;;;;;2.85;1.73;;;;;;;;;;4162575;28;20057;-38
2021/11/26 02:49:29;;;;;;;2.17;1.65;;;;;;;;;;4173011;28;20167;-37
2021/11/26 02:51:31;;;;;;;2.05;1.70;;;;;;;;;;4172973;28;20477;-39
2021/11/26 02:53:33;;;;;;;2.22;1.60;;;;;;;;;;4175897;28;20523;-37
2021/11/26 02:55:35;;;;;;;2.22;1.67;;;;;;;;;;4176286;28;20087;-38
2021/11/26 02:57:36;;;;;;;2.22;1.48;;;;;;;;;;4175317;28;20079;-38
2021/11/26 02:59:38;;;;;;;2.28;1.67;;;;;;;;;;4173020;28;20487;-39
2021/11/26 03:01:39;;;;;;;1.88;1.30;;;;;;;;;;4175732;28;20053;-36
2021/11/26 03:03:40;;;;;;;2.72;1.50;;;;;;;;;;4173492;28;20096;-37
2021/11/26 03:05:41;;;;;;;1.85;1.55;;;;;;;;;;4172930;28;20060;-37
2021/11/26 03:07:43;;;;;;;1.35;1.25;;;;;;;;;;4174125;28;20045;-37
2021/11/26 03:09:44;;;;;;;2.75;1.50;;;;;;;;;;4175221;28;20099;-37
2021/11/26 03:11:45;;;;;;;1.75;1.33;;;;;;;;;;4174794;28;20054;-36
2021/11/26 03:13:46;;;;;;;2.28;1.30;;;;;;;;;;4171609;28;20068;-38
2021/11/26 03:15:48;;;;;;;2.60;1.52;;;;;;;;;;4153016;28;20058;-37
2021/11/26 03:17:50;;;;;;;1.58;1.13;;;;;;;;;;4172694;28;20052;-37
2021/11/26 03:19:52;;;;;;;1.83;1.48;;;;;;;;;;4173056;28;20052;-36
2021/11/26 03:21:53;;;;;;;1.55;1.40;;;;;;;;;;4134492;28;20468;-37
2021/11/26 03:23:55;;;;;;;1.55;1.30;;;;;;;;;;4171654;28;20151;-37
2021/11/26 03:25:56;;;;;;;2.17;1.65;;;;;;;;;;4174047;28;20405;-36
2021/11/26 03:27:57;;;;;;;2.42;1.38;;;;;;;;;;4176520;28;20100;-38
2021/11/26 03:30:00;;;;;;;2.53;1.33;;;;;;;;;;4170902;28;20057;-38
2021/11/26 03:32:01;;;;;;;2.30;1.45;;;;;;;;;;4145703;28;20058;-37
2021/11/26 03:34:03;;;;;;;2.10;1.50;;;;;;;;;;4174395;28;20409;-37
2021/11/26 03:36:04;;;;;;;1.65;1.50;;;;;;;;;;4177501;28;20060;-38
2021/11/26 03:38:06;;;;;;;2.03;1.55;;;;;;;;;;4170895;28;20102;-37
2021/11/26 03:40:09;;;;;;;1.58;1.08;;;;;;;;;;4176275;28;20059;-38
2021/11/26 03:42:10;;;;;;;1.85;1.52;;;;;;;;;;4175454;28;20623;-37
2021/11/26 03:44:11;;;;;;;2.47;1.50;;;;;;;;;;4174162;28;20057;-36
2021/11/26 03:46:13;;;;;;;1.65;1.48;;;;;;;;;;4153594;28;20050;-37
2021/11/26 03:48:15;;;;;;;1.70;1.48;;;;;;;;;;4173904;28;20441;-38
2021/11/26 03:50:16;;;;;;;1.90;1.40;;;;;;;;;;4174934;28;20053;-37
2021/11/26 03:52:18;;;;;;;2.13;1.40;;;;;;;;;;4172770;28;20112;-37
2021/11/26 03:54:19;;;;;;;1.58;1.30;;;;;;;;;;4169183;28;20060;-37
2021/11/26 03:56:20;;;;;;;2.58;1.30;;;;;;;;;;4170269;28;20053;-36
2021/11/26 03:58:21;;;;;;;2.08;1.60;;;;;;;;;;4173166;28;20552;-37
2021/11/26 04:00:23;;;;;;;2.47;1.58;;;;;;;;;;4170033;28;20482;-39
2021/11/26 04:02:24;;;;;;;1.17;1.08;;;;;;;;;;4173330;28;20509;-37
2021/11/26 04:04:26;;;;;;;2.00;1.45;;;;;;;;;;4174222;28;20493;-36
2021/11/26 04:06:27;;;;;;;1.50;1.30;;;;;;;;;;4171489;28;20497;-38
2021/11/26 04:08:28;;;;;;;2.25;1.48;;;;;;;;;;4172683;28;20060;-37
2021/11/26 04:10:30;;;;;;;1.20;0.95;;;;;;;;;;4157067;28;20398;-37
2021/11/26 04:12:31;;;;;;;1.65;1.35;;;;;;;;;;4175666;28;20057;-36
2021/11/26 04:14:32;;;;;;;1.40;1.10;;;;;;;;;;4171261;28;20053;-37
2021/11/26 04:16:36;;;;;;;1.67;1.13;;;;;;;;;;4173712;28;20567;-37
2021/11/26 04:18:37;;;;;;;1.92;1.10;;;;;;;;;;4173836;28;20562;-39
2021/11/26 04:20:41;;;;;;;1.85;1.27;;;;;;;;;;4172729;28;20053;-37
2021/11/26 04:22:42;;;;;;;1.50;1.10;;;;;;;;;;4171818;28;20497;-37
2021/11/26 04:24:43;;;;;;;1.85;1.40;;;;;;;;;;4172850;28;20053;-39
2021/11/26 04:26:45;;;;;;;1.83;1.30;;;;;;;;;;4173584;28;20057;-38
2021/11/26 04:28:46;;;;;;;2.63;1.50;;;;;;;;;;4176214;28;20385;-37
2021/11/26 04:30:47;;;;;;;1.77;1.25;;;;;;;;;;4174498;28;20541;-37
2021/11/26 04:32:49;;;;;;;1.60;1.10;;;;;;;;;;4172529;28;20057;-38
2021/11/26 04:34:51;;;;;;;2.20;1.30;;;;;;;;;;4172853;28;20053;-36
2021/11/26 04:36:52;;;;;;;1.42;1.10;;;;;;;;;;4157033;28;20053;-37
2021/11/26 04:38:53;;;;;;;1.48;1.00;;;;;;;;;;4172265;28;20057;-37
2021/11/26 04:40:54;;;;;;;1.98;0.95;;;;;;;;;;4171807;28;20189;-38
2021/11/26 04:42:56;;;;;;;1.30;1.00;;;;;;;;;;4174028;28;20413;-37
2021/11/26 04:44:57;;;;;;;1.67;1.02;;;;;;;;;;4168278;28;20271;-38
2021/11/26 04:46:58;;;;;;;1.13;0.88;;;;;;;;;;4174710;28;20057;-38
2021/11/26 04:49:00;;;;;;;2.08;1.30;;;;;;;;;;4171741;28;20103;-38
2021/11/26 04:51:01;;;;;;;1.42;1.20;;;;;;;;;;4173794;28;20370;-37
2021/11/26 04:53:02;;;;;;;1.00;0.90;;;;;;;;;;4170266;28;20408;-37
2021/11/26 04:55:05;;;;;;;1.10;0.90;;;;;;;;;;4171113;28;20061;-38
2021/11/26 04:57:06;;;;;;;2.08;1.30;;;;;;;;;;4169204;28;20057;-38
2021/11/26 04:59:07;;;;;;;1.75;0.98;;;;;;;;;;4153689;28;20061;-37
2021/11/26 05:01:08;;;;;;;2.03;1.10;;;;;;;;;;4167997;28;20053;-38
2021/11/26 05:03:10;;;;;;;1.45;0.93;;;;;;;;;;4171798;28;20110;-38
2021/11/26 05:05:11;;;;;;;1.08;0.85;;;;;;;;;;4172124;28;20798;-37
2021/11/26 05:07:13;;;;;;;1.10;0.90;;;;;;;;;;4174672;28;20095;-37
2021/11/26 05:09:14;;;;;;;1.70;1.15;;;;;;;;;;4166433;28;20049;-36
2021/11/26 05:11:16;;;;;;;1.38;0.90;;;;;;;;;;4171429;28;20045;-37
2021/11/26 05:13:21;;;;;;;0.98;0.88;;;;;;;;;;4171898;28;20559;-38
2021/11/26 05:15:24;;;;;;;1.40;0.82;;;;;;;;;;4170297;28;20375;-40
2021/11/26 05:17:26;;;;;;;1.92;1.33;;;;;;;;;;4175598;28;20114;-37
2021/11/26 05:19:28;;;;;;;1.60;1.27;;;;;;;;;;4174377;28;20057;-37
2021/11/26 05:21:29;;;;;;;1.35;1.00;;;;;;;;;;4173345;28;20064;-37
2021/11/26 05:23:30;;;;;;;1.30;1.15;;;;;;;;;;4167693;28;20114;-36
2021/11/26 05:25:31;;;;;;;1.42;1.00;;;;;;;;;;4170579;28;20060;-37
2021/11/26 05:27:32;;;;;;;1.50;1.00;;;;;;;;;;4172724;28;20497;-39
2021/11/26 05:29:34;;;;;;;1.65;0.82;;;;;;;;;;4173932;28;20346;-38
2021/11/26 05:31:36;;;;;;;1.92;0.98;;;;;;;;;;4170324;28;20111;-37
2021/11/26 05:33:37;;;;;;;1.63;1.00;;;;;;;;;;4175032;28;20057;-38
2021/11/26 05:35:38;;;;;;;1.83;1.23;;;;;;;;;;4173659;28;20053;-37
2021/11/26 05:37:40;;;;;;;1.15;0.85;;;;;;;;;;4171762;28;20053;-37
2021/11/26 05:39:42;;;;;;;1.55;0.68;;;;;;;;;;4173060;28;20052;-38
2021/11/26 05:41:43;;;;;;;1.30;0.68;;;;;;;;;;4167721;28;20099;-37
2021/11/26 05:43:44;;;;;;;1.02;0.60;;;;;;;;;;4170088;28;20091;-38
2021/11/26 05:45:46;;;;;;;1.27;0.70;;;;;;;;;;4177595;28;20071;-37
2021/11/26 05:47:48;;;;;;;1.17;0.60;;;;;;;;;;4171887;28;20053;-40
2021/11/26 05:49:49;;;;;;;0.90;0.50;;;;;;;;;;4176208;28;20064;-37
2021/11/26 05:51:50;;;;;;;0.70;0.60;;;;;;;;;;4175684;28;20049;-37
2021/11/26 05:53:51;;;;;;;1.38;0.60;;;;;;;;;;4171485;28;20485;-37
2021/11/26 05:55:53;;;;;;;0.82;0.57;;;;;;;;;;4178559;28;20055;-37
2021/11/26 05:57:54;;;;;;;0.60;0.43;;;;;;;;;;4156327;28;20057;-36
2021/11/26 05:59:55;;;;;;;1.23;0.63;;;;;;;;;;4175122;28;20053;-37
2021/11/26 06:01:58;;;;;;;1.05;0.50;;;;;;;;;;4174913;28;20095;-36
2021/11/26 06:03:59;;;;;;;1.20;0.60;;;;;;;;;;4172566;28;20049;-37
2021/11/26 06:06:01;;;;;;;0.98;0.47;;;;;;;;;;4176802;28;20064;-37
2021/11/26 06:08:02;;;;;;;0.73;0.30;;;;;;;;;;4168735;28;20444;-38
2021/11/26 06:10:05;;;;;;;0.65;0.35;;;;;;;;;;4177229;28;20083;-37
2021/11/26 06:12:10;;;;;;;0.32;0.32;;;;;;;;;;4174948;28;20053;-37
2021/11/26 06:14:11;;;;;;;0.85;0.40;;;;;;;;;;4177656;28;20064;-38
2021/11/26 06:16:12;;;;;;;0.82;0.40;;;;;;;;;;4172973;28;20480;-37
2021/11/26 06:18:14;;;;;;;0.82;0.40;;;;;;;;;;4176453;28;20048;-37
2021/11/26 06:20:15;;;;;;;1.13;0.50;;;;;;;;;;4155700;28;20111;-37
2021/11/26 06:22:17;;;;;;;0.85;0.35;;;;;;;;;;4173507;28;20053;-37
2021/11/26 06:24:18;;;;;;;1.20;0.50;;;;;;;;;;4173602;28;20402;-38
2021/11/26 06:26:19;;;;;;;0.80;0.45;;;;;;;;;;4171712;28;20065;-37
2021/11/26 06:28:20;;;;;;;0.43;0.30;;;;;;;;;;4176093;28;20053;-37
2021/11/26 06:30:23;;;;;;;1.08;0.50;;;;;;;;;;4176223;28;20053;-37
2021/11/26 06:32:25;;;;;;;0.55;0.30;;;;;;;;;;4174711;28;20064;-37
2021/11/26 06:34:26;;;;;;;0.98;0.35;;;;;;;;;;4175643;28;20244;-37
2021/11/26 06:36:30;;;;;;;0.35;0.20;;;;;;;;;;4173876;28;20057;-38
2021/11/26 06:38:31;;;;;;;0.50;0.38;;;;;;;;;;4173319;28;20050;-38
2021/11/26 06:40:32;;;;;;;0.43;0.20;;;;;;;;;;4157935;28;20108;-36
2021/11/26 06:42:33;;;;;;;1.60;0.20;;;;;;;;;;4174916;28;20057;-38
2021/11/26 06:44:36;;;;;;;0.45;0.30;;;;;;;;;;4174050;28;20061;-38
2021/11/26 06:46:37;;;;;;;0.28;0.20;;;;;;;;;;4148202;28;20807;-38
2021/11/26 06:48:38;;;;;;;0.80;0.32;;;;;;;;;;4180987;28;20061;-37
2021/11/26 06:50:39;;;;;;;0.45;0.22;;;;;;;;;;4177553;28;20056;-38
2021/11/26 06:52:41;;;;;;;1.15;0.40;;;;;;;;;;4170116;28;21816;-39
2021/11/26 06:54:43;;;;;;;0.68;0.32;;;;;;;;;;4177790;28;20049;-40
2021/11/26 06:56:44;;;;;;;0.43;0.25;;;;;;;;;;4167751;28;20053;-38
2021/11/26 06:58:46;;;;;;;0.60;0.38;;;;;;;;;;4173487;28;20057;-37
2021/11/26 07:00:47;;;;;;;0.20;0.20;;;;;;;;;;4174470;28;20056;-37
2021/11/26 07:02:49;;;;;;;0.30;0.20;;;;;;;;;;4177036;28;20062;-37
2021/11/26 07:04:50;;;;;;;0.52;0.20;;;;;;;;;;4165566;28;20053;-37
2021/11/26 07:06:51;;;;;;;0.90;0.20;;;;;;;;;;4171153;28;20049;-42
2021/11/26 07:08:52;;;;;;;0.95;0.20;;;;;;;;;;4161134;28;20137;-38
2021/11/26 07:10:54;;;;;;;0.40;0.20;;;;;;;;;;4175563;28;20057;-37
2021/11/26 07:12:55;;;;;;;0.45;0.28;;;;;;;;;;4172570;28;20465;-37
2021/11/26 07:14:56;;;;;;;0.50;0.25;;;;;;;;;;4165750;28;20119;-38
2021/11/26 07:16:57;;;;;;;1.27;0.32;;;;;;;;;;4176059;28;20056;-40
2021/11/26 07:18:59;;;;;;;0.47;0.20;;;;;;;;;;4176469;28;20049;-41
2021/11/26 07:21:00;;;;;;;0.20;0.20;;;;;;;;;;4174140;28;20065;-39
2021/11/26 07:23:01;;;;;;;0.77;0.30;;;;;;;;;;4167066;28;20056;-38
2021/11/26 07:25:05;;;;;;;0.75;0.20;;;;;;;;;;4175045;28;20053;-40
2021/11/26 07:27:06;;;;;;;1.13;0.50;;;;;;;;;;4163740;28;20099;-39
2021/11/26 07:29:07;;;;;;;0.40;0.20;;;;;;;;;;4169396;28;20110;-39
2021/11/26 07:31:09;;;;;;;0.20;0.20;;;;;;;;;;4166646;28;20125;-36
2021/11/26 07:33:10;;;;;;;0.68;0.30;;;;;;;;;;4172042;28;20104;-39
2021/11/26 07:35:13;;;;;;;1.05;0.30;;;;;;;;;;4172166;28;20052;-38
2021/11/26 07:37:14;;;;;;;0.70;0.30;;;;;;;;;;4171150;28;20069;-36
2021/11/26 07:39:16;;;;;;;1.98;0.25;;;;;;;;;;4168389;28;20054;-39
2021/11/26 07:41:18;;;;;;;1.80;0.20;;;;;;;;;;4165084;28;20099;-38
2021/11/26 07:43:20;;;;;;;0.38;0.30;;;;;;;;;;4171988;28;20129;-38
2021/11/26 07:45:23;;;;;;;0.47;0.30;;;;;;;;;;4173763;28;20057;-36
2021/11/26 07:47:24;;;;;;;0.52;0.40;;;;;;;;;;4179459;28;20060;-39
2021/11/26 07:49:28;;;;;;;0.85;0.30;;;;;;;;;;4172768;28;20053;-38
2021/11/26 07:51:29;;;;;;;1.33;0.40;;;;;;;;;;4181659;28;20052;-38
2021/11/26 07:53:32;;;;;;;0.73;0.28;;;;;;;;;;4175107;28;20198;-38
2021/11/26 07:55:33;;;;;;;2.60;0.25;;;;;;;;;;4172182;28;20517;-36
2021/11/26 07:57:35;;;;;;;0.55;0.25;;;;;;;;;;4166402;28;20056;-36
2021/11/26 07:59:37;;;;;;;6.22;0.40;;;;;;;;;;4167946;28;20056;-37
2021/11/26 08:01:38;;;;;;;0.52;0.20;;;;;;;;;;4166563;28;21366;-37
2021/11/26 08:03:40;;;;;;;2.85;0.52;;;;;;;;;;4168000;28;20060;-38
2021/11/26 08:05:41;;;;;;;0.70;0.35;;;;;;;;;;4172162;28;20550;-37
2021/11/26 08:07:42;;;;;;;0.43;0.30;;;;;;;;;;4167542;28;20087;-38
2021/11/26 08:09:43;;;;;;;0.52;0.38;;;;;;;;;;4176811;28;20065;-36
2021/11/26 08:11:45;;;;;;;1.13;0.43;;;;;;;;;;4174128;28;20102;-37
2021/11/26 08:13:46;;;;;;;0.68;0.38;;;;;;;;;;4173839;28;20063;-37
2021/11/26 08:15:48;;;;;;;2.53;0.40;;;;;;;;;;4171637;28;20057;-37
2021/11/26 08:17:49;;;;;;;0.75;0.40;;;;;;;;;;4178339;28;20530;-37
2021/11/26 08:19:50;;;;;;;1.08;0.30;;;;;;;;;;4175422;28;20057;-38
2021/11/26 08:21:53;;;;;;;1.05;0.50;;;;;;;;;;4153948;28;20113;-37
2021/11/26 08:23:54;;;;;;;0.57;0.32;;;;;;;;;;4150732;28;20057;-39
2021/11/26 08:25:57;;;;;;;0.82;0.30;;;;;;;;;;4152640;28;20057;-36
2021/11/26 08:27:59;;;;;;;0.98;0.30;;;;;;;;;;4156395;28;20062;-36
2021/11/26 08:30:00;;;;;;;1.05;0.20;;;;;;;;;;4157618;28;20061;-36
2021/11/26 08:32:01;;;;;;;1.23;0.50;;;;;;;;;;4158876;28;20045;-38
2021/11/26 08:34:04;;;;;;;2.28;0.25;;;;;;;;;;4156546;28;20060;-36
2021/11/26 08:36:06;;;;;;;1.00;0.50;;;;;;;;;;4156741;28;20384;-36
2021/11/26 08:38:07;;;;;;;1.48;0.57;;;;;;;;;;4156534;28;20065;-38
2021/11/26 08:40:09;;;;;;;0.80;0.30;;;;;;;;;;4152472;28;20057;-37
2021/11/26 08:42:10;;;;;;;1.27;0.30;;;;;;;;;;4153205;28;20057;-37
2021/11/26 08:44:11;;;;;;;1.48;0.30;;;;;;;;;;4150676;28;20053;-37
2021/11/26 08:46:12;;;;;;;2.00;0.45;;;;;;;;;;4153301;28;20061;-37
2021/11/26 08:48:14;;;;;;;1.60;0.32;;;;;;;;;;4147737;28;20116;-39
2021/11/26 08:50:17;;;;;;;0.82;0.40;;;;;;;;;;4149093;28;20106;-39
2021/11/26 08:52:20;;;;;;;2.28;0.40;;;;;;;;;;4150605;28;20462;-38
2021/11/26 08:54:24;;;;;;;1.10;0.30;;;;;;;;;;4154073;28;20111;-37
2021/11/26 08:56:26;;;;;;;0.75;0.20;;;;;;;;;;4154782;28;20061;-38
2021/11/26 08:58:28;;;;;;;0.73;0.30;;;;;;;;;;4138130;28;20105;-37
2021/11/26 09:00:35;;;;;;;0.52;0.35;;;;;;;;;;4148304;28;20065;-37
2021/11/26 09:02:36;;;;;;;0.70;0.22;;;;;;;;;;4152269;28;20053;-36
2021/11/26 09:04:39;;;;;;;3.20;0.47;;;;;;;;;;4152705;28;20365;-36
2021/11/26 09:06:40;;;;;;;1.88;0.25;;;;;;;;;;4153971;28;20095;-36
2021/11/26 09:08:41;;;;;;;2.60;0.40;;;;;;;;;;4150652;28;20452;-37
2021/11/26 09:10:44;;;;;;;1.27;0.30;;;;;;;;;;4134333;28;20045;-36
2021/11/26 09:12:46;;;;;;;0.28;0.20;;;;;;;;;;4144419;28;20087;-38
2021/11/26 09:14:47;;;;;;;0.88;0.30;;;;;;;;;;4148424;28;20092;-38
2021/11/26 09:16:48;;;;;;;0.50;0.30;;;;;;;;;;4143606;28;20058;-35
2021/11/26 09:18:50;;;;;;;0.40;0.22;;;;;;;;;;4153968;28;20517;-35
2021/11/26 09:20:53;;;;;;;2.53;0.50;;;;;;;;;;4152985;28;20045;-36
2021/11/26 09:22:54;;;;;;;0.77;0.50;;;;;;;;;;4164723;28;20134;-37
2021/11/26 09:24:57;;;;;;;0.60;0.38;;;;;;;;;;4173618;28;20044;-36
2021/11/26 09:26:58;;;;;;;0.70;0.38;;;;;;;;;;4177310;28;20057;-35
2021/11/26 09:28:59;;;;;;;0.65;0.40;;;;;;;;;;4171346;28;20531;-36
2021/11/26 09:31:01;;;;;;;0.50;0.30;;;;;;;;;;4174650;28;20419;-36
2021/11/26 09:33:02;;;;;;;0.50;0.20;;;;;;;;;;4169364;28;20064;-39
2021/11/26 09:35:04;;;;;;;0.75;0.40;;;;;;;;;;4175528;28;20053;-35
2021/11/26 09:37:06;;;;;;;0.40;0.25;;;;;;;;;;4168349;28;20542;-38
2021/11/26 09:39:07;;;;;;;0.55;0.22;;;;;;;;;;4171770;28;20449;-35
2021/11/26 09:41:11;;;;;;;0.80;0.32;;;;;;;;;;4154848;28;20106;-36
2021/11/26 09:43:13;;;;;;;0.43;0.20;;;;;;;;;;4172468;28;20057;-35
2021/11/26 09:45:20;;;;;;;1.13;0.30;;;;;;;;;;4171320;28;20054;-35
2021/11/26 09:47:22;;;;;;;0.30;0.20;;;;;;;;;;4170142;28;20057;-35
2021/11/26 09:49:23;;;;;;;0.55;0.38;;;;;;;;;;4173304;28;20064;-35
2021/11/26 09:51:25;;;;;;;1.50;0.40;;;;;;;;;;4158738;28;20049;-36
2021/11/26 09:53:27;;;;;;;0.47;0.30;;;;;;;;;;4173476;28;20057;-36
2021/11/26 09:55:31;;;;;;;1.42;0.40;;;;;;;;;;4165774;28;20057;-36
2021/11/26 09:57:33;;;;;;;1.70;0.32;;;;;;;;;;4164835;28;20469;-37
2021/11/26 09:59:37;;;;;;;0.75;0.30;;;;;;;;;;4169695;28;20083;-36
2021/11/26 10:01:38;;;;;;;0.88;0.40;;;;;;;;;;4168759;28;20086;-36
2021/11/26 10:03:42;;;;;;;1.45;0.43;;;;;;;;;;4169323;28;20150;-35
2021/11/26 10:05:45;;;;;;;0.30;0.30;;;;;;;;;;4154478;28;20097;-35
2021/11/26 10:07:51;;;;;;;0.77;0.55;;;;;;;;;;4155161;28;20119;-36
2021/11/26 10:09:54;;;;;;;0.50;0.20;;;;;;;;;;4155443;28;20087;-35
2021/11/26 10:11:58;;;;;;;0.68;0.35;;;;;;;;;;4172866;28;20053;-39
2021/11/26 10:13:59;;;;;;;0.60;0.30;;;;;;;;;;4172904;28;20057;-37
2021/11/26 10:16:10;;;;;;;0.55;0.40;;;;;;;;;;4176070;28;20139;-36
2021/11/26 10:18:13;;;;;;;0.75;0.40;;;;;;;;;;4170254;28;20099;-36
2021/11/26 10:20:14;;;;;;;1.55;0.30;;;;;;;;;;4170522;28;20057;-38
2021/11/26 10:22:17;;;;;;;0.63;0.20;;;;;;;;;;4172096;28;20056;-37
2021/11/26 10:24:18;;;;;;;0.90;0.30;;;;;;;;;;4173766;28;20126;-38
2021/11/26 10:26:23;;;;;;;1.65;0.40;;;;;;;;;;4174701;28;20488;-37
2021/11/26 10:28:24;;;;;;;0.40;0.25;;;;;;;;;;4176119;28;20268;-36
2021/11/26 10:30:34;;;;;;;0.73;0.22;;;;;;;;;;4175668;28;20129;-36
2021/11/26 10:32:35;;;;;;;0.55;0.30;;;;;;;;;;4177204;28;20072;-36
2021/11/26 10:34:37;;;;;;;1.05;0.28;;;;;;;;;;4183650;28;20064;-35
2021/11/26 10:36:47;;;;;;;1.58;0.30;;;;;;;;;;4170263;28;20053;-42
2021/11/26 10:38:48;;;;;;;0.60;0.30;;;;;;;;;;4176605;28;20509;-40
2021/11/26 10:40:54;;;;;;;2.05;0.30;;;;;;;;;;4178500;28;20055;-35
2021/11/26 10:42:55;;;;;;;0.93;0.50;;;;;;;;;;4177184;28;20057;-38
2021/11/26 10:45:02;;;;;;;0.50;0.30;;;;;;;;;;4179580;28;20110;-34
2021/11/26 10:51:35;;;;;;;2.15;0.20;;;;;;;;;;4178056;28;20052;-36
2021/11/26 10:58:36;;;;;;;1.83;0.55;;;;;;;;;;4175704;28;20052;-38
2021/11/26 11:00:37;;;;;;;0.43;0.30;;;;;;;;;;4170184;28;20455;-39
2021/11/26 11:02:42;;;;;;;0.73;0.57;;;;;;;;;;4174585;28;20094;-37
2021/11/26 11:04:48;;;;;;;1.10;0.45;;;;;;;;;;4176520;28;20530;-38
2021/11/26 11:07:17;;;;;;;1.55;0.30;;;;;;;;;;4181503;28;20098;-39
2021/11/26 11:09:18;;;;;;;0.30;0.20;;;;;;;;;;4162596;28;20054;-38
2021/11/26 11:11:20;;;;;;;0.10;0.10;;;;;;;;;;4165111;28;20134;-38
2021/11/26 11:13:30;;;;;;;0.45;0.28;;;;;;;;;;4170910;28;20425;-38
2021/11/26 11:15:31;;;;;;;0.68;0.22;;;;;;;;;;4167271;28;20122;-38
2021/11/26 11:17:32;;;;;;;1.83;0.30;;;;;;;;;;4173825;28;20048;-39
2021/11/26 11:19:34;;;;;;;1.45;0.20;;;;;;;;;;4169749;28;20095;-37
2021/11/26 11:21:35;;;;;;;0.40;0.40;;;;;;;;;;4154984;28;20041;-38
2021/11/26 11:23:37;;;;;;;0.45;0.22;;;;;;;;;;4154002;28;20592;-38
2021/11/26 11:25:39;;;;;;;0.85;0.40;;;;;;;;;;4151083;28;20049;-38
2021/11/26 11:27:40;;;;;;;1.40;0.28;;;;;;;;;;4168966;28;20386;-38
2021/11/26 11:29:42;;;;;;;0.93;0.30;;;;;;;;;;4167896;28;20057;-40
2021/11/26 11:31:43;;;;;;;0.38;0.22;;;;;;;;;;4164427;28;20103;-38
2021/11/26 11:33:45;;;;;;;1.83;0.30;;;;;;;;;;4165137;28;20073;-38
2021/11/26 11:35:47;;;;;;;2.35;0.30;;;;;;;;;;4175040;28;20102;-39
2021/11/26 11:37:48;;;;;;;0.80;0.30;;;;;;;;;;4166974;28;20057;-38
2021/11/26 11:39:53;;;;;;;0.65;0.30;;;;;;;;;;4155065;28;20065;-38
2021/11/26 11:41:59;;;;;;;0.65;0.30;;;;;;;;;;4151044;28;20049;-38
2021/11/26 11:44:07;;;;;;;0.63;0.30;;;;;;;;;;4166291;28;20111;-38
2021/11/26 11:46:11;;;;;;;0.47;0.35;;;;;;;;;;4162020;28;20111;-39
2021/11/26 11:48:22;;;;;;;0.68;0.38;;;;;;;;;;4165181;28;20501;-37
2021/11/26 11:50:27;;;;;;;0.60;0.30;;;;;;;;;;4145948;28;20412;-38
2021/11/26 11:52:37;;;;;;;0.65;0.30;;;;;;;;;;4170549;28;20404;-38
2021/11/26 11:54:44;;;;;;;1.02;0.25;;;;;;;;;;4154709;28;20512;-38
2021/11/26 11:56:50;;;;;;;0.30;0.30;;;;;;;;;;4166534;28;20083;-38
2021/11/26 11:58:54;;;;;;;0.60;0.30;;;;;;;;;;4166687;28;20071;-38
2021/11/26 12:00:55;;;;;;;0.63;0.40;;;;;;;;;;4168372;28;20056;-38
2021/11/26 12:03:07;;;;;;;1.75;0.63;;;;;;;;;;4168634;28;20149;-36
2021/11/26 12:05:25;;;;;;;0.63;0.32;;;;;;;;;;4175432;28;20107;-37
2021/11/26 12:07:29;;;;;;;0.63;0.43;;;;;;;;;;4165520;28;20054;-39
2021/11/26 12:09:31;;;;;;;0.47;0.20;;;;;;;;;;4170839;28;20056;-39
2021/11/26 12:11:35;;;;;;;1.48;0.32;;;;;;;;;;4172819;28;20060;-40
2021/11/26 12:13:36;;;;;;;0.52;0.30;;;;;;;;;;4173981;28;20140;-38
2021/11/26 12:15:41;;;;;;;0.30;0.28;;;;;;;;;;4173818;28;20457;-40
2021/11/26 12:17:44;;;;;;;0.35;0.20;;;;;;;;;;4177730;28;20061;-38
2021/11/26 12:19:45;;;;;;;0.98;0.20;;;;;;;;;;4171730;28;20520;-38
2021/11/26 12:21:49;;;;;;;1.05;0.28;;;;;;;;;;4153195;28;20189;-38